createdAt,value
2022-11-13T00:02:35.967Z,3.70
2022-11-13T00:05:23.451Z,3.70
2022-11-13T00:08:10.710Z,3.60
2022-11-13T00:11:03.321Z,3.50
2022-11-13T00:13:51.075Z,3.60
2022-11-13T00:16:39.616Z,3.50
2022-11-13T00:19:26.887Z,3.50
2022-11-13T00:22:15.607Z,3.40
2022-11-13T00:25:02.865Z,3.40
2022-11-13T00:27:49.978Z,3.30
2022-11-13T00:30:37.381Z,3.30
2022-11-13T00:33:45.375Z,3.40
2022-11-13T00:36:33.091Z,3.50
2022-11-13T00:39:20.236Z,3.50
2022-11-13T00:42:07.480Z,3.40
2022-11-13T00:44:54.402Z,3.50
2022-11-13T00:47:41.435Z,3.50
2022-11-13T00:50:30.173Z,3.50
2022-11-13T00:53:18.439Z,3.40
2022-11-13T00:56:06.904Z,3.40
2022-11-13T00:58:54.265Z,3.40
2022-11-13T01:01:41.368Z,3.50
2022-11-13T01:04:30.908Z,3.40
2022-11-13T01:07:19.758Z,3.40
2022-11-13T01:10:08.026Z,3.50
2022-11-13T01:12:55.333Z,3.30
2022-11-13T01:15:44.226Z,3.20
2022-11-13T01:18:31.351Z,3.30
2022-11-13T01:21:22.879Z,3.30
2022-11-13T01:24:11.822Z,3.20
2022-11-13T01:26:59.328Z,3.20
2022-11-13T01:29:46.642Z,3.30
2022-11-13T01:32:34.813Z,3.20
2022-11-13T01:35:22.437Z,3.20
2022-11-13T01:38:09.581Z,3.30
2022-11-13T01:40:58.398Z,3.40
2022-11-13T01:43:46.029Z,3.30
2022-11-13T01:46:35.546Z,3.10
2022-11-13T01:49:31.919Z,3.10
2022-11-13T01:52:26.730Z,3.20
2022-11-13T01:55:19.896Z,3.10
2022-11-13T01:58:11.862Z,3.00
2022-11-13T02:00:59.480Z,3.10
2022-11-13T02:03:46.974Z,3.10
2022-11-13T02:06:42.186Z,3.10
2022-11-13T02:09:37.148Z,3.10
2022-11-13T02:12:35.339Z,3.00
2022-11-13T02:15:29.579Z,2.90
2022-11-13T02:18:22.889Z,3.00
2022-11-13T02:21:28.366Z,3.00
2022-11-13T02:24:32.539Z,3.00
2022-11-13T02:27:29.386Z,3.00
2022-11-13T02:30:26.530Z,2.80
2022-11-13T02:33:29.830Z,2.80
2022-11-13T02:36:19.727Z,2.80
2022-11-13T02:39:11.881Z,2.90
2022-11-13T02:42:00.691Z,2.90
2022-11-13T02:44:47.838Z,2.90
2022-11-13T02:47:35.629Z,2.90
2022-11-13T02:50:23.473Z,2.90
2022-11-13T02:53:11.084Z,2.90
2022-11-13T02:55:58.203Z,2.90
2022-11-13T02:58:46.624Z,3.00
2022-11-13T03:01:34.256Z,3.00
2022-11-13T03:04:22.156Z,2.80
2022-11-13T03:07:09.194Z,2.80
2022-11-13T03:09:56.945Z,2.90
2022-11-13T03:12:44.488Z,2.80
2022-11-13T03:15:35.015Z,2.80
2022-11-13T03:18:22.361Z,2.90
2022-11-13T03:21:12.885Z,2.70
2022-11-13T03:24:00.047Z,2.70
2022-11-13T03:26:47.333Z,2.60
2022-11-13T03:29:35.035Z,2.60
2022-11-13T03:32:24.728Z,2.70
2022-11-13T03:35:12.281Z,2.50
2022-11-13T03:37:59.769Z,2.60
2022-11-13T03:40:47.505Z,2.70
2022-11-13T03:43:34.578Z,2.70
2022-11-13T03:46:21.571Z,2.70
2022-11-13T03:49:10.560Z,2.70
2022-11-13T03:51:57.934Z,2.60
2022-11-13T03:54:45.004Z,2.60
2022-11-13T03:57:32.621Z,2.60
2022-11-13T04:00:20.404Z,2.70
2022-11-13T04:03:08.052Z,2.60
2022-11-13T04:05:56.557Z,2.50
2022-11-13T04:08:43.559Z,2.60
2022-11-13T04:11:30.772Z,2.70
2022-11-13T04:14:18.124Z,2.70
2022-11-13T04:17:05.485Z,2.60
2022-11-13T04:19:53.151Z,2.60
2022-11-13T04:22:41.720Z,2.50
2022-11-13T04:25:29.314Z,2.50
2022-11-13T04:28:16.810Z,2.50
2022-11-13T04:31:03.952Z,2.50
2022-11-13T04:33:51.462Z,2.50
2022-11-13T04:36:38.491Z,2.50
2022-11-13T04:39:27.456Z,2.50
2022-11-13T04:42:32.313Z,2.40
2022-11-13T04:45:21.615Z,2.40
2022-11-13T04:48:09.078Z,2.30
2022-11-13T04:50:56.320Z,2.30
2022-11-13T04:53:44.817Z,2.30
2022-11-13T04:56:34.412Z,2.30
2022-11-13T04:59:21.910Z,2.20
2022-11-13T05:02:08.940Z,2.30
2022-11-13T05:05:00.457Z,2.30
2022-11-13T05:07:50.780Z,2.30
2022-11-13T05:10:38.742Z,2.20
2022-11-13T05:13:28.139Z,2.20
2022-11-13T05:16:16.864Z,2.20
2022-11-13T05:19:07.087Z,2.20
2022-11-13T05:21:54.339Z,2.10
2022-11-13T05:24:43.927Z,2.20
2022-11-13T05:27:31.609Z,2.20
2022-11-13T05:30:20.423Z,2.10
2022-11-13T05:33:07.869Z,2.10
2022-11-13T05:35:55.003Z,2.20
2022-11-13T05:38:43.709Z,2.20
2022-11-13T05:41:31.251Z,2.20
2022-11-13T05:44:18.545Z,2.20
2022-11-13T05:47:07.609Z,2.10
2022-11-13T05:49:55.269Z,2.00
2022-11-13T05:52:43.003Z,2.00
2022-11-13T05:55:30.141Z,2.00
2022-11-13T05:58:17.375Z,2.00
2022-11-13T06:01:12.700Z,2.00
2022-11-13T06:04:02.528Z,2.00
2022-11-13T06:06:50.387Z,2.00
2022-11-13T06:09:38.528Z,1.90
2022-11-13T06:12:27.449Z,2.00
2022-11-13T06:15:16.662Z,2.00
2022-11-13T06:18:14.899Z,2.00
2022-11-13T06:21:10.588Z,2.00
2022-11-13T06:24:00.652Z,1.90
2022-11-13T06:26:48.889Z,1.80
2022-11-13T06:29:41.678Z,1.80
2022-11-13T06:32:28.924Z,1.90
2022-11-13T06:35:16.633Z,1.90
2022-11-13T06:38:05.318Z,1.80
2022-11-13T06:40:52.622Z,1.80
2022-11-13T06:43:40.398Z,1.90
2022-11-13T06:46:30.138Z,1.90
2022-11-13T06:49:24.213Z,1.90
2022-11-13T06:52:12.065Z,2.00
2022-11-13T06:55:01.534Z,1.80
2022-11-13T06:57:48.700Z,1.90
2022-11-13T07:00:38.254Z,1.90
2022-11-13T07:03:37.389Z,2.00
2022-11-13T07:06:26.753Z,2.00
2022-11-13T07:09:13.921Z,2.00
2022-11-13T07:12:03.151Z,2.00
2022-11-13T07:14:50.323Z,2.00
2022-11-13T07:17:37.854Z,1.90
2022-11-13T07:20:24.969Z,1.80
2022-11-13T07:23:12.574Z,1.80
2022-11-13T07:26:00.193Z,1.80
2022-11-13T07:28:50.272Z,1.80
2022-11-13T07:31:37.580Z,1.90
2022-11-13T07:34:25.447Z,1.90
2022-11-13T07:37:12.417Z,2.00
2022-11-13T07:39:59.653Z,2.10
2022-11-13T07:42:46.806Z,2.00
2022-11-13T07:45:35.706Z,2.10
2022-11-13T07:48:23.361Z,2.10
2022-11-13T07:51:11.640Z,2.10
2022-11-13T07:53:58.888Z,2.10
2022-11-13T07:56:47.440Z,2.10
2022-11-13T07:59:34.968Z,2.10
2022-11-13T08:02:26.681Z,2.10
2022-11-13T08:05:14.366Z,2.10
2022-11-13T08:08:02.770Z,2.10
2022-11-13T08:10:51.349Z,2.20
2022-11-13T08:13:39.219Z,2.20
2022-11-13T08:16:26.433Z,2.20
2022-11-13T08:19:15.177Z,2.20
2022-11-13T08:22:02.527Z,2.20
2022-11-13T08:24:54.003Z,2.20
2022-11-13T08:27:42.013Z,2.20
2022-11-13T08:30:31.551Z,2.30
2022-11-13T08:33:18.865Z,2.30
2022-11-13T08:36:08.511Z,2.40
2022-11-13T08:38:55.989Z,2.40
2022-11-13T08:41:44.765Z,2.40
2022-11-13T08:44:34.808Z,2.40
2022-11-13T08:47:29.704Z,2.40
2022-11-13T08:50:17.595Z,2.40
2022-11-13T08:53:06.629Z,2.50
2022-11-13T08:55:53.964Z,2.50
2022-11-13T08:58:44.370Z,2.50
2022-11-13T09:01:31.766Z,2.50
2022-11-13T09:04:20.941Z,2.50
2022-11-13T09:07:08.564Z,2.50
2022-11-13T09:09:59.834Z,2.50
2022-11-13T09:12:53.612Z,2.60
2022-11-13T09:15:42.291Z,2.60
2022-11-13T09:18:30.249Z,2.70
2022-11-13T09:21:17.666Z,2.70
2022-11-13T09:24:06.602Z,2.70
2022-11-13T09:26:55.660Z,2.70
2022-11-13T09:29:43.154Z,2.70
2022-11-13T09:32:32.519Z,2.70
2022-11-13T09:35:33.838Z,2.80
2022-11-13T09:38:21.761Z,2.80
2022-11-13T09:41:15.387Z,2.80
2022-11-13T09:44:13.040Z,2.90
2022-11-13T09:47:12.950Z,2.90
2022-11-13T09:50:07.358Z,2.90
2022-11-13T09:52:56.098Z,3.00
2022-11-13T09:56:06.262Z,3.00
2022-11-13T09:59:07.425Z,3.00
2022-11-13T10:02:05.547Z,3.00
2022-11-13T10:05:05.664Z,3.10
2022-11-13T10:08:03.406Z,3.10
2022-11-13T10:10:57.143Z,3.20
2022-11-13T10:13:50.476Z,3.20
2022-11-13T10:16:48.100Z,3.20
2022-11-13T10:19:43.775Z,3.20
2022-11-13T10:22:40.934Z,3.30
2022-11-13T10:25:36.038Z,3.30
2022-11-13T10:28:49.371Z,3.30
2022-11-13T10:31:46.906Z,3.30
2022-11-13T10:34:34.447Z,3.40
2022-11-13T10:37:50.469Z,3.40
2022-11-13T10:40:40.831Z,3.40
2022-11-13T10:43:31.667Z,3.40
2022-11-13T10:46:22.978Z,3.40
2022-11-13T10:49:29.070Z,3.50
2022-11-13T10:52:21.572Z,3.60
2022-11-13T10:55:21.711Z,3.60
2022-11-13T10:58:16.813Z,3.60
2022-11-13T11:01:14.470Z,3.70
2022-11-13T11:04:05.111Z,3.80
2022-11-13T11:07:19.626Z,3.80
2022-11-13T11:10:33.029Z,3.80
2022-11-13T11:13:24.644Z,3.90
2022-11-13T11:16:21.452Z,3.90
2022-11-13T11:19:15.420Z,4.10
2022-11-13T11:22:14.689Z,4.20
2022-11-13T11:25:11.253Z,4.40
2022-11-13T11:28:09.239Z,4.30
2022-11-13T11:31:11.214Z,4.30
2022-11-13T11:34:12.808Z,4.40
2022-11-13T11:37:08.119Z,4.50
2022-11-13T11:40:04.204Z,4.50
2022-11-13T11:43:01.534Z,4.70
2022-11-13T11:45:49.453Z,5.00
2022-11-13T11:48:36.781Z,4.80
2022-11-13T11:51:32.335Z,4.80
2022-11-13T11:54:41.466Z,5.00
2022-11-13T11:57:50.175Z,5.10
2022-11-13T12:00:50.456Z,4.90
2022-11-13T12:04:03.940Z,5.00
2022-11-13T12:07:12.119Z,4.90
2022-11-13T12:10:16.237Z,4.90
2022-11-13T12:13:23.968Z,5.00
2022-11-13T12:16:25.447Z,5.00
2022-11-13T12:19:31.457Z,5.00
2022-11-13T12:22:31.154Z,5.00
2022-11-13T12:25:30.086Z,5.00
2022-11-13T12:28:26.232Z,5.10
2022-11-13T12:31:41.676Z,5.20
2022-11-13T12:34:39.321Z,5.60
2022-11-13T12:37:37.092Z,5.90
2022-11-13T12:40:33.181Z,5.70
2022-11-13T12:44:01.114Z,5.60
2022-11-13T12:46:51.676Z,5.50
2022-11-13T12:49:39.954Z,5.60
2022-11-13T12:52:27.676Z,5.60
2022-11-13T12:55:31.162Z,5.60
2022-11-13T12:58:24.735Z,5.60
2022-11-13T13:01:22.066Z,5.60
2022-11-13T13:04:44.013Z,5.60
2022-11-13T13:08:09.821Z,5.70
2022-11-13T13:11:17.506Z,5.70
2022-11-13T13:14:27.537Z,5.70
2022-11-13T13:17:24.768Z,5.70
2022-11-13T13:20:36.877Z,5.70
2022-11-13T13:23:31.562Z,5.80
2022-11-13T13:26:25.837Z,5.80
2022-11-13T13:29:22.520Z,5.80
2022-11-13T13:32:23.638Z,5.90
2022-11-13T13:35:20.031Z,6.00
2022-11-13T13:38:19.845Z,6.10
2022-11-13T13:41:34.735Z,6.00
2022-11-13T13:44:54.650Z,6.00
2022-11-13T13:47:46.834Z,6.10
2022-11-13T13:50:43.219Z,6.00
2022-11-13T13:53:35.443Z,6.10
2022-11-13T13:56:26.475Z,6.00
2022-11-13T13:59:21.035Z,6.10
2022-11-13T14:02:18.684Z,6.00
2022-11-13T14:05:27.852Z,6.00
2022-11-13T14:08:19.370Z,6.00
2022-11-13T14:11:20.270Z,6.00
2022-11-13T14:14:18.873Z,6.00
2022-11-13T14:17:07.039Z,6.00
2022-11-13T14:20:00.972Z,6.00
2022-11-13T14:22:56.337Z,6.00
2022-11-13T14:25:45.980Z,6.10
2022-11-13T14:28:49.732Z,6.00
2022-11-13T14:31:41.473Z,6.00
2022-11-13T14:34:31.037Z,6.00
2022-11-13T14:37:27.531Z,6.00
2022-11-13T14:40:23.506Z,6.00
2022-11-13T14:43:21.835Z,6.00
2022-11-13T14:46:30.014Z,5.90
2022-11-13T14:49:29.781Z,5.90
2022-11-13T14:52:24.497Z,6.10
2022-11-13T14:55:25.597Z,6.30
2022-11-13T14:58:15.516Z,6.40
2022-11-13T15:01:17.587Z,6.40
2022-11-13T15:04:05.968Z,6.40
2022-11-13T15:06:57.115Z,6.30
2022-11-13T15:09:44.685Z,6.20
2022-11-13T15:12:32.168Z,6.20
2022-11-13T15:15:21.961Z,6.10
2022-11-13T15:18:17.569Z,6.10
2022-11-13T15:21:05.109Z,6.10
2022-11-13T15:23:53.962Z,6.00
2022-11-13T15:26:41.943Z,6.00
2022-11-13T15:29:31.953Z,6.00
2022-11-13T15:32:23.519Z,6.00
2022-11-13T15:35:21.212Z,5.90
2022-11-13T15:38:08.675Z,5.80
2022-11-13T15:40:57.745Z,5.80
2022-11-13T15:43:48.892Z,5.80
2022-11-13T15:46:35.931Z,5.70
2022-11-13T15:49:23.042Z,5.80
2022-11-13T15:52:11.309Z,5.70
2022-11-13T15:55:00.342Z,5.70
2022-11-13T15:57:49.677Z,5.50
2022-11-13T16:00:42.155Z,5.60
2022-11-13T16:03:29.575Z,5.40
2022-11-13T16:06:21.249Z,5.50
2022-11-13T16:09:15.483Z,5.50
2022-11-13T16:12:03.308Z,5.50
2022-11-13T16:14:52.316Z,5.40
2022-11-13T16:17:45.714Z,5.40
2022-11-13T16:20:33.160Z,5.30
2022-11-13T16:23:23.376Z,5.40
2022-11-13T16:26:17.811Z,5.30
2022-11-13T16:29:19.949Z,5.30
2022-11-13T16:32:17.024Z,5.40
2022-11-13T16:35:05.022Z,5.30
2022-11-13T16:37:52.218Z,5.20
2022-11-13T16:40:41.561Z,5.20
2022-11-13T16:43:29.609Z,5.20
2022-11-13T16:46:26.148Z,5.20
2022-11-13T16:49:19.764Z,5.20
2022-11-13T16:52:07.477Z,5.10
2022-11-13T16:54:55.026Z,5.10
2022-11-13T16:57:43.272Z,5.10
2022-11-13T17:00:30.867Z,5.00
2022-11-13T17:03:18.142Z,4.90
2022-11-13T17:06:07.793Z,4.90
2022-11-13T17:08:58.848Z,5.00
2022-11-13T17:11:45.969Z,5.00
2022-11-13T17:14:35.029Z,5.00
2022-11-13T17:17:22.605Z,4.90
2022-11-13T17:20:12.703Z,4.90
2022-11-13T17:23:01.679Z,4.90
2022-11-13T17:25:49.006Z,4.90
2022-11-13T17:28:36.579Z,4.80
2022-11-13T17:31:24.339Z,4.80
2022-11-13T17:34:12.341Z,4.80
2022-11-13T17:37:01.130Z,4.80
2022-11-13T17:39:49.817Z,4.80
2022-11-13T17:42:37.385Z,4.70
2022-11-13T17:45:24.942Z,4.70
2022-11-13T17:48:12.720Z,4.70
2022-11-13T17:51:02.186Z,4.70
2022-11-13T17:53:49.467Z,4.70
2022-11-13T17:56:38.658Z,4.70
2022-11-13T17:59:25.679Z,4.60
2022-11-13T18:02:13.612Z,4.50
2022-11-13T18:05:04.221Z,4.50
2022-11-13T18:07:51.954Z,4.60
2022-11-13T18:10:40.768Z,4.50
2022-11-13T18:13:29.873Z,4.60
2022-11-13T18:16:20.539Z,4.50
2022-11-13T18:19:09.408Z,4.50
2022-11-13T18:21:57.093Z,4.40
2022-11-13T18:24:44.695Z,4.40
2022-11-13T18:27:33.025Z,4.40
2022-11-13T18:30:22.587Z,4.40
2022-11-13T18:33:10.116Z,4.50
2022-11-13T18:35:57.417Z,4.40
2022-11-13T18:38:44.681Z,4.30
2022-11-13T18:41:33.698Z,4.30
2022-11-13T18:44:21.467Z,4.20
2022-11-13T18:47:10.177Z,4.20
2022-11-13T18:49:58.319Z,4.10
2022-11-13T18:52:49.430Z,4.30
2022-11-13T18:55:37.930Z,4.30
2022-11-13T18:58:29.575Z,4.20
2022-11-13T19:01:22.638Z,4.10
2022-11-13T19:04:27.489Z,4.20
2022-11-13T19:07:14.682Z,4.20
2022-11-13T19:10:02.472Z,4.10
2022-11-13T19:12:49.838Z,4.10
2022-11-13T19:15:38.667Z,4.10
2022-11-13T19:18:26.258Z,4.10
2022-11-13T19:21:18.216Z,4.00
2022-11-13T19:24:12.099Z,4.00
2022-11-13T19:27:03.668Z,4.00
2022-11-13T19:29:50.872Z,3.90
2022-11-13T19:32:38.570Z,4.00
2022-11-13T19:35:27.635Z,3.90
2022-11-13T19:38:16.419Z,3.90
2022-11-13T19:41:05.387Z,3.80
2022-11-13T19:43:52.501Z,3.70
2022-11-13T19:46:39.531Z,3.70
2022-11-13T19:49:27.146Z,3.70
2022-11-13T19:52:14.682Z,3.70
2022-11-13T19:55:03.341Z,3.70
2022-11-13T19:57:51.321Z,3.80
2022-11-13T20:00:38.962Z,3.70
2022-11-13T20:03:27.454Z,3.70
2022-11-13T20:06:17.998Z,3.70
2022-11-13T20:09:05.406Z,3.80
2022-11-13T20:11:54.057Z,3.70
2022-11-13T20:14:41.144Z,3.70
2022-11-13T20:17:28.305Z,3.70
2022-11-13T20:20:17.095Z,3.70
2022-11-13T20:23:04.618Z,3.60
2022-11-13T20:25:57.011Z,3.60
2022-11-13T20:28:46.557Z,3.70
2022-11-13T20:31:33.865Z,3.70
2022-11-13T20:34:21.027Z,3.70
2022-11-13T20:37:08.041Z,3.60
2022-11-13T20:39:57.282Z,3.60
2022-11-13T20:42:44.483Z,3.60
2022-11-13T20:45:33.165Z,3.70
2022-11-13T20:48:20.334Z,3.60
2022-11-13T20:51:10.441Z,3.50
2022-11-13T20:54:10.641Z,3.50
2022-11-13T20:56:58.013Z,3.40
2022-11-13T20:59:45.450Z,3.40
2022-11-13T21:02:33.885Z,3.40
2022-11-13T21:05:21.093Z,3.40
2022-11-13T21:08:11.784Z,3.40
2022-11-13T21:11:01.139Z,3.40
2022-11-13T21:13:49.197Z,3.40
2022-11-13T21:16:36.489Z,3.40
2022-11-13T21:19:25.771Z,3.40
2022-11-13T21:22:13.226Z,3.30
2022-11-13T21:25:00.309Z,3.40
2022-11-13T21:27:47.900Z,3.40
2022-11-13T21:30:35.450Z,3.30
2022-11-13T21:33:23.842Z,3.30
2022-11-13T21:36:16.187Z,3.30
2022-11-13T21:39:03.825Z,3.30
2022-11-13T21:41:50.892Z,3.20
2022-11-13T21:44:38.259Z,3.20
2022-11-13T21:47:25.511Z,3.00
2022-11-13T21:50:12.930Z,3.10
2022-11-13T21:53:01.871Z,3.10
2022-11-13T21:55:52.629Z,3.10
2022-11-13T21:58:41.783Z,3.10
2022-11-13T22:01:36.486Z,3.10
2022-11-13T22:04:25.721Z,3.10
2022-11-13T22:07:14.287Z,3.20
2022-11-13T22:10:07.915Z,3.10
2022-11-13T22:12:55.775Z,3.10
2022-11-13T22:16:14.222Z,3.10
2022-11-13T22:19:04.644Z,3.10
2022-11-13T22:21:52.273Z,3.10
2022-11-13T22:24:39.285Z,3.00
2022-11-13T22:27:27.732Z,3.00
2022-11-13T22:30:15.479Z,3.00
2022-11-13T22:33:02.853Z,3.00
2022-11-13T22:35:50.506Z,3.00
2022-11-13T22:38:38.882Z,3.00
2022-11-13T22:41:30.829Z,3.00
2022-11-13T22:44:19.902Z,3.10
2022-11-13T22:47:07.235Z,3.10
2022-11-13T22:49:54.493Z,3.10
2022-11-13T22:52:41.514Z,3.00
2022-11-13T22:55:28.575Z,3.10
2022-11-13T22:58:15.957Z,3.10
2022-11-13T23:01:16.351Z,3.00
2022-11-13T23:04:06.101Z,3.00
2022-11-13T23:06:53.315Z,3.10
2022-11-13T23:09:40.675Z,3.10
2022-11-13T23:12:28.478Z,3.10
2022-11-13T23:15:15.976Z,3.10
2022-11-13T23:18:09.680Z,3.10
2022-11-13T23:20:57.128Z,3.20
2022-11-13T23:23:45.470Z,3.10
2022-11-13T23:26:32.723Z,3.10
2022-11-13T23:29:20.139Z,3.10
2022-11-13T23:32:07.712Z,3.10
2022-11-13T23:35:00.183Z,3.10
2022-11-13T23:37:48.708Z,3.10
2022-11-13T23:40:36.606Z,3.10
2022-11-13T23:43:41.578Z,3.10
2022-11-13T23:46:34.695Z,3.10
2022-11-13T23:49:21.977Z,3.10
2022-11-13T23:52:10.537Z,3.10
2022-11-13T23:54:57.587Z,3.10
2022-11-13T23:57:45.129Z,3.10
